KDWH/DWH METAR and TAF weather

Enter ICAO airport designator
Station Type Date Time Source
KDWH METAR 2019/04/25 21:53 UTC NOAA

KDWH 252153Z 31010G19KT 10SM FEW060 28/15 A2984 RMK AO2 SLP102 T02780150


Station Type Date Time Source
KDWH Decoded METAR 2019/04/25 21:53 UTC NOAA

HOUSTON HOOKS MEMORIAL, TX, United States (KDWH) 30-04N 95-33W 46M
Apr 25, 2019 - 05:53 PM EDT / 2019.04.25 2153 UTC
Wind: from the NW (310 degrees) at 12 MPH (10 KT) gusting to 22 MPH (19 KT):0
Visibility: 10 mile(s):0
Sky conditions: mostly clear
Temperature: 82.0 F (27.8 C)
Dew Point: 59.0 F (15.0 C)
Relative Humidity: 45%
Pressure (altimeter): 29.84 in. Hg (1010 hPa)
ob: KDWH 252153Z 31010G19KT 10SM FEW060 28/15 A2984 RMK AO2 SLP102 T02780150
cycle: 22

Station Type Date Time Source
KDWH TAF 2017/02/07 15:09 UTC NOAA

TAF
AMD KDWH 071507Z 0715/0812 23010KT P6SM BKN015
TEMPO 0715/0719 SCT015
FM071900 25010KT P6SM SCT025
FM080100 22005KT P6SM SCT250
TEMPO 0807/0809 3SM BR BKN013
FM080900 VRB03KT 2SM BR OVC008

Example: see airport list